Portada
METAR-TAF:

METAR-TAF

Aeropuertos :

Aeropuerto de Dundee

Dundee, Escocia

latitud: 56-27N, longitud: 003-01W, altitud: 4 m

Observación

El informe se hizo hace 37 minutos, a las 14:50 UTC
Viento 5 kt del oeste
Temperatura 14°C
Humedad 82%
Presión 1004 hPa
Visibilidad 10 km o más
Escasas nubes a una altura de 1800 ft
Nubes dispersas a una altura de 4000 ft
chaparrones en las proximidades

METAR: EGPN 241450Z 26005KT 9999 VCSH FEW018 SCT040 14/11 Q1004

Hora: 16:27 (15:27 UTC)

Pronóstico

El informe se hizo hace 1 hora y 31 minutos, a las 13:56 UTC
Pronóstico válido del 24 a las 15 UTC al 24 a las 21 UTC
Viento 12 kt del sur-suroeste
Visibilidad 10 km o más
Escasas nubes a una altura de 1500 ft
Nubes dispersas a una altura de 2500 ft
Probabilidad 40% :
Temporalmente
del 24 a las 18 UTC al 24 a las 21 UTC
Visibilidad: 7000 m
chaparrones de lluvia

TAF: EGPN 241356Z 2415/2421 20012KT 9999 FEW015 SCT025 PROB40 TEMPO 2418/2421 7000 SHRA

Observaciones y pronósticos meteorológicos de más de 4000 aeropuertos (mensajes METAR y TAF).

Los puntos amarillos y rojos representan las estaciones disponibles.

Ponga el ratón en el punto deseado para ver el nombre de la estación.

Haga clic para ver las observaciones y los pronósticos meteorológicos.

Para cambiar el mapa : haga clic en los botones verdes con una cruz de color negro para hacer un zoom, en el botón verde con un guión para alejar o en las flechas verdes para mapas adyacentes.


METAR-TAF: